sensor_id;sensor_type;location;lat;lon;timestamp;temperature;humidity
34572;DHT22;20808;48.974;8.452;2023-03-15T00:00:17;2.60;48.60
34572;DHT22;20808;48.974;8.452;2023-03-15T00:00:33;2.60;54.00
34572;DHT22;20808;48.974;8.452;2023-03-15T00:00:51;2.50;49.50
34572;DHT22;20808;48.974;8.452;2023-03-15T00:01:11;2.50;44.40
34572;DHT22;20808;48.974;8.452;2023-03-15T00:01:29;2.50;41.00
34572;DHT22;20808;48.974;8.452;2023-03-15T00:01:45;2.50;44.20
34572;DHT22;20808;48.974;8.452;2023-03-15T00:02:01;2.50;54.90
34572;DHT22;20808;48.974;8.452;2023-03-15T00:02:17;2.50;62.90
34572;DHT22;20808;48.974;8.452;2023-03-15T00:02:33;2.60;70.50
34572;DHT22;20808;48.974;8.452;2023-03-15T00:02:48;2.60;71.80
34572;DHT22;20808;48.974;8.452;2023-03-15T00:03:05;2.50;59.30
34572;DHT22;20808;48.974;8.452;2023-03-15T00:03:22;2.50;53.80
34572;DHT22;20808;48.974;8.452;2023-03-15T00:03:38;2.50;56.90
34572;DHT22;20808;48.974;8.452;2023-03-15T00:03:54;2.60;46.20
34572;DHT22;20808;48.974;8.452;2023-03-15T00:04:10;2.50;41.40
34572;DHT22;20808;48.974;8.452;2023-03-15T00:04:26;2.60;40.40
34572;DHT22;20808;48.974;8.452;2023-03-15T00:04:43;2.60;36.50
34572;DHT22;20808;48.974;8.452;2023-03-15T00:04:59;2.60;28.80
34572;DHT22;20808;48.974;8.452;2023-03-15T00:05:15;2.60;24.20
34572;DHT22;20808;48.974;8.452;2023-03-15T00:05:30;2.60;23.00
34572;DHT22;20808;48.974;8.452;2023-03-15T00:05:47;2.60;19.70
34572;DHT22;20808;48.974;8.452;2023-03-15T00:06:04;2.60;10.50
34572;DHT22;20808;48.974;8.452;2023-03-15T00:06:21;2.50;6.50
34572;DHT22;20808;48.974;8.452;2023-03-15T00:06:36;2.60;7.20
34572;DHT22;20808;48.974;8.452;2023-03-15T00:06:53;2.50;1.10
34572;DHT22;20808;48.974;8.452;2023-03-15T00:07:08;2.60;1.00
34572;DHT22;20808;48.974;8.452;2023-03-15T00:07:24;2.50;1.00
34572;DHT22;20808;48.974;8.452;2023-03-15T00:07:41;2.50;1.00
34572;DHT22;20808;48.974;8.452;2023-03-15T00:07:58;2.50;1.00
34572;DHT22;20808;48.974;8.452;2023-03-15T00:08:14;2.40;1.00
34572;DHT22;20808;48.974;8.452;2023-03-15T00:08:31;2.50;1.00
34572;DHT22;20808;48.974;8.452;2023-03-15T00:08:47;2.40;1.00
34572;DHT22;20808;48.974;8.452;2023-03-15T00:09:03;2.40;1.00
34572;DHT22;20808;48.974;8.452;2023-03-15T00:09:20;2.40;1.00
34572;DHT22;20808;48.974;8.452;2023-03-15T00:09:36;2.40;1.00
34572;DHT22;20808;48.974;8.452;2023-03-15T00:09:52;2.40;1.00
34572;DHT22;20808;48.974;8.452;2023-03-15T00:10:09;2.40;1.00
34572;DHT22;20808;48.974;8.452;2023-03-15T00:10:25;2.40;1.00
34572;DHT22;20808;48.974;8.452;2023-03-15T00:10:43;2.40;1.00
34572;DHT22;20808;48.974;8.452;2023-03-15T00:10:59;2.30;1.00
34572;DHT22;20808;48.974;8.452;2023-03-15T00:11:16;2.30;1.00
34572;DHT22;20808;48.974;8.452;2023-03-15T00:11:32;2.30;1.00
34572;DHT22;20808;48.974;8.452;2023-03-15T00:11:48;2.30;1.00
34572;DHT22;20808;48.974;8.452;2023-03-15T00:12:05;2.30;1.00
34572;DHT22;20808;48.974;8.452;2023-03-15T00:12:21;2.20;1.00
34572;DHT22;20808;48.974;8.452;2023-03-15T00:12:37;2.20;1.00
34572;DHT22;20808;48.974;8.452;2023-03-15T00:12:53;2.20;1.00
34572;DHT22;20808;48.974;8.452;2023-03-15T00:13:10;2.20;1.00
34572;DHT22;20808;48.974;8.452;2023-03-15T00:13:26;2.10;1.00
34572;DHT22;20808;48.974;8.452;2023-03-15T00:13:42;2.10;1.70
34572;DHT22;20808;48.974;8.452;2023-03-15T00:13:59;2.10;3.40
34572;DHT22;20808;48.974;8.452;2023-03-15T00:14:17;2.10;24.90
34572;DHT22;20808;48.974;8.452;2023-03-15T00:14:33;2.10;45.20
34572;DHT22;20808;48.974;8.452;2023-03-15T00:14:49;2.10;58.60
34572;DHT22;20808;48.974;8.452;2023-03-15T00:15:06;2.10;66.80
34572;DHT22;20808;48.974;8.452;2023-03-15T00:15:23;2.10;75.80
34572;DHT22;20808;48.974;8.452;2023-03-15T00:15:44;2.10;85.30
34572;DHT22;20808;48.974;8.452;2023-03-15T00:16:01;2.00;82.60
34572;DHT22;20808;48.974;8.452;2023-03-15T00:16:17;2.00;76.30
34572;DHT22;20808;48.974;8.452;2023-03-15T00:16:34;2.00;77.00
34572;DHT22;20808;48.974;8.452;2023-03-15T00:16:50;2.00;83.60
34572;DHT22;20808;48.974;8.452;2023-03-15T00:17:06;2.00;90.80
34572;DHT22;20808;48.974;8.452;2023-03-15T00:17:22;2.00;98.50
34572;DHT22;20808;48.974;8.452;2023-03-15T00:17:39;2.00;99.90
34572;DHT22;20808;48.974;8.452;2023-03-15T00:17:55;2.00;99.90
34572;DHT22;20808;48.974;8.452;2023-03-15T00:18:10;2.00;99.90
34572;DHT22;20808;48.974;8.452;2023-03-15T00:18:26;2.00;99.90
34572;DHT22;20808;48.974;8.452;2023-03-15T00:18:43;2.00;99.90
34572;DHT22;20808;48.974;8.452;2023-03-15T00:18:59;2.00;99.90
34572;DHT22;20808;48.974;8.452;2023-03-15T00:19:16;1.90;99.90
34572;DHT22;20808;48.974;8.452;2023-03-15T00:19:32;1.90;99.90
34572;DHT22;20808;48.974;8.452;2023-03-15T00:19:47;2.00;99.90
34572;DHT22;20808;48.974;8.452;2023-03-15T00:20:04;2.00;99.90
34572;DHT22;20808;48.974;8.452;2023-03-15T00:20:21;2.00;99.90
34572;DHT22;20808;48.974;8.452;2023-03-15T00:20:37;2.00;99.90
34572;DHT22;20808;48.974;8.452;2023-03-15T00:20:53;1.90;99.90
34572;DHT22;20808;48.974;8.452;2023-03-15T00:21:09;1.90;99.90
34572;DHT22;20808;48.974;8.452;2023-03-15T00:21:25;1.90;99.90
34572;DHT22;20808;48.974;8.452;2023-03-15T00:21:43;2.00;99.90
34572;DHT22;20808;48.974;8.452;2023-03-15T00:21:59;2.00;99.90
34572;DHT22;20808;48.974;8.452;2023-03-15T00:22:16;1.90;99.90
34572;DHT22;20808;48.974;8.452;2023-03-15T00:22:31;1.90;99.90
34572;DHT22;20808;48.974;8.452;2023-03-15T00:22:47;1.90;99.90
34572;DHT22;20808;48.974;8.452;2023-03-15T00:23:04;1.90;99.90
34572;DHT22;20808;48.974;8.452;2023-03-15T00:23:20;1.90;99.90
34572;DHT22;20808;48.974;8.452;2023-03-15T00:23:38;1.90;99.90
34572;DHT22;20808;48.974;8.452;2023-03-15T00:23:54;1.80;99.90
34572;DHT22;20808;48.974;8.452;2023-03-15T00:24:10;1.80;99.90
34572;DHT22;20808;48.974;8.452;2023-03-15T00:24:26;1.80;99.90
34572;DHT22;20808;48.974;8.452;2023-03-15T00:24:41;1.80;99.90
34572;DHT22;20808;48.974;8.452;2023-03-15T00:24:58;1.80;99.90
34572;DHT22;20808;48.974;8.452;2023-03-15T00:25:15;1.80;99.90
34572;DHT22;20808;48.974;8.452;2023-03-15T00:25:30;1.80;99.90
34572;DHT22;20808;48.974;8.452;2023-03-15T00:25:47;1.80;99.90
34572;DHT22;20808;48.974;8.452;2023-03-15T00:26:04;1.80;99.90
34572;DHT22;20808;48.974;8.452;2023-03-15T00:26:19;1.80;99.90
34572;DHT22;20808;48.974;8.452;2023-03-15T00:26:36;1.80;99.90
34572;DHT22;20808;48.974;8.452;2023-03-15T00:26:52;1.80;99.90
34572;DHT22;20808;48.974;8.452;2023-03-15T00:27:08;1.80;99.90
34572;DHT22;20808;48.974;8.452;2023-03-15T00:27:24;1.80;99.90
34572;DHT22;20808;48.974;8.452;2023-03-15T00:27:40;1.90;99.90
34572;DHT22;20808;48.974;8.452;2023-03-15T00:27:56;1.90;99.90
34572;DHT22;20808;48.974;8.452;2023-03-15T00:28:11;1.80;99.90
34572;DHT22;20808;48.974;8.452;2023-03-15T00:28:29;1.80;99.90
34572;DHT22;20808;48.974;8.452;2023-03-15T00:28:44;1.80;99.90
34572;DHT22;20808;48.974;8.452;2023-03-15T00:29:00;1.80;99.90
34572;DHT22;20808;48.974;8.452;2023-03-15T00:29:16;1.80;99.90
34572;DHT22;20808;48.974;8.452;2023-03-15T00:29:32;1.80;99.90
34572;DHT22;20808;48.974;8.452;2023-03-15T00:29:48;1.70;99.90
34572;DHT22;20808;48.974;8.452;2023-03-15T00:30:05;1.70;99.90
34572;DHT22;20808;48.974;8.452;2023-03-15T00:30:21;1.70;99.90
34572;DHT22;20808;48.974;8.452;2023-03-15T00:30:37;1.70;99.90
34572;DHT22;20808;48.974;8.452;2023-03-15T00:31:02;1.70;99.90
34572;DHT22;20808;48.974;8.452;2023-03-15T00:31:19;1.70;99.90
34572;DHT22;20808;48.974;8.452;2023-03-15T00:31:36;1.70;99.90
34572;DHT22;20808;48.974;8.452;2023-03-15T00:31:52;1.70;99.90
34572;DHT22;20808;48.974;8.452;2023-03-15T00:32:08;1.70;99.90
34572;DHT22;20808;48.974;8.452;2023-03-15T00:32:24;1.70;99.90
34572;DHT22;20808;48.974;8.452;2023-03-15T00:32:40;1.70;99.90
34572;DHT22;20808;48.974;8.452;2023-03-15T00:32:56;1.60;99.90
34572;DHT22;20808;48.974;8.452;2023-03-15T00:33:13;1.60;99.90
34572;DHT22;20808;48.974;8.452;2023-03-15T00:33:29;1.60;99.90
34572;DHT22;20808;48.974;8.452;2023-03-15T00:33:49;1.60;99.90
34572;DHT22;20808;48.974;8.452;2023-03-15T00:34:08;1.50;99.90
34572;DHT22;20808;48.974;8.452;2023-03-15T00:34:28;1.50;99.90
34572;DHT22;20808;48.974;8.452;2023-03-15T00:34:44;1.50;99.90
34572;DHT22;20808;48.974;8.452;2023-03-15T00:35:04;1.50;99.90
34572;DHT22;20808;48.974;8.452;2023-03-15T00:35:20;1.50;99.90
34572;DHT22;20808;48.974;8.452;2023-03-15T00:35:39;1.60;99.90
34572;DHT22;20808;48.974;8.452;2023-03-15T00:35:54;1.60;99.90
34572;DHT22;20808;48.974;8.452;2023-03-15T00:36:11;1.60;99.90
34572;DHT22;20808;48.974;8.452;2023-03-15T00:36:27;1.60;99.90
34572;DHT22;20808;48.974;8.452;2023-03-15T00:36:43;1.60;99.90
34572;DHT22;20808;48.974;8.452;2023-03-15T00:36:59;1.60;99.90
34572;DHT22;20808;48.974;8.452;2023-03-15T00:37:15;1.70;99.90
34572;DHT22;20808;48.974;8.452;2023-03-15T00:37:31;1.70;99.90
34572;DHT22;20808;48.974;8.452;2023-03-15T00:37:48;1.70;99.90
34572;DHT22;20808;48.974;8.452;2023-03-15T00:38:06;1.70;99.90
34572;DHT22;20808;48.974;8.452;2023-03-15T00:38:22;1.70;99.90
34572;DHT22;20808;48.974;8.452;2023-03-15T00:38:40;1.70;99.90
34572;DHT22;20808;48.974;8.452;2023-03-15T00:38:55;1.70;99.90
34572;DHT22;20808;48.974;8.452;2023-03-15T00:39:11;1.70;99.90
34572;DHT22;20808;48.974;8.452;2023-03-15T00:39:29;1.70;99.90
34572;DHT22;20808;48.974;8.452;2023-03-15T00:39:45;1.70;99.90
34572;DHT22;20808;48.974;8.452;2023-03-15T00:40:01;1.70;99.90
34572;DHT22;20808;48.974;8.452;2023-03-15T00:40:18;1.70;99.90
34572;DHT22;20808;48.974;8.452;2023-03-15T00:40:35;1.70;99.90
34572;DHT22;20808;48.974;8.452;2023-03-15T00:40:52;1.70;99.90
34572;DHT22;20808;48.974;8.452;2023-03-15T00:41:10;1.80;99.90
34572;DHT22;20808;48.974;8.452;2023-03-15T00:41:26;1.80;99.90
34572;DHT22;20808;48.974;8.452;2023-03-15T00:41:42;1.80;99.90
34572;DHT22;20808;48.974;8.452;2023-03-15T00:42:00;1.80;99.90
34572;DHT22;20808;48.974;8.452;2023-03-15T00:42:18;1.80;99.90
34572;DHT22;20808;48.974;8.452;2023-03-15T00:42:34;1.80;99.90
34572;DHT22;20808;48.974;8.452;2023-03-15T00:42:50;1.80;99.90
34572;DHT22;20808;48.974;8.452;2023-03-15T00:43:06;1.80;99.90
34572;DHT22;20808;48.974;8.452;2023-03-15T00:43:21;1.80;99.90
34572;DHT22;20808;48.974;8.452;2023-03-15T00:43:38;1.80;99.90
34572;DHT22;20808;48.974;8.452;2023-03-15T00:43:54;1.80;99.90
34572;DHT22;20808;48.974;8.452;2023-03-15T00:44:10;1.80;99.90
34572;DHT22;20808;48.974;8.452;2023-03-15T00:44:26;1.80;99.90
34572;DHT22;20808;48.974;8.452;2023-03-15T00:44:43;1.80;99.90
34572;DHT22;20808;48.974;8.452;2023-03-15T00:44:59;1.80;99.90
34572;DHT22;20808;48.974;8.452;2023-03-15T00:45:15;1.80;99.90
34572;DHT22;20808;48.974;8.452;2023-03-15T00:45:32;1.70;99.90
34572;DHT22;20808;48.974;8.452;2023-03-15T00:45:48;1.80;99.90
34572;DHT22;20808;48.974;8.452;2023-03-15T00:46:04;1.80;99.90
34572;DHT22;20808;48.974;8.452;2023-03-15T00:46:20;1.80;99.90
34572;DHT22;20808;48.974;8.452;2023-03-15T00:46:37;1.80;99.90
34572;DHT22;20808;48.974;8.452;2023-03-15T00:46:53;1.80;99.90
34572;DHT22;20808;48.974;8.452;2023-03-15T00:47:09;1.80;99.90
34572;DHT22;20808;48.974;8.452;2023-03-15T00:47:25;1.80;99.90
34572;DHT22;20808;48.974;8.452;2023-03-15T00:47:41;1.80;99.90
34572;DHT22;20808;48.974;8.452;2023-03-15T00:47:57;1.80;99.90
34572;DHT22;20808;48.974;8.452;2023-03-15T00:48:13;1.80;99.90
34572;DHT22;20808;48.974;8.452;2023-03-15T00:48:30;1.80;99.90
34572;DHT22;20808;48.974;8.452;2023-03-15T00:48:48;1.80;99.90
34572;DHT22;20808;48.974;8.452;2023-03-15T00:49:04;1.80;99.90
34572;DHT22;20808;48.974;8.452;2023-03-15T00:49:20;1.90;99.90
34572;DHT22;20808;48.974;8.452;2023-03-15T00:49:36;1.80;99.90
34572;DHT22;20808;48.974;8.452;2023-03-15T00:49:52;1.80;99.90
34572;DHT22;20808;48.974;8.452;2023-03-15T00:50:09;1.90;99.90
34572;DHT22;20808;48.974;8.452;2023-03-15T00:50:25;1.90;99.90
34572;DHT22;20808;48.974;8.452;2023-03-15T00:50:41;1.90;99.90
34572;DHT22;20808;48.974;8.452;2023-03-15T00:51:04;1.90;99.90
34572;DHT22;20808;48.974;8.452;2023-03-15T00:51:23;1.90;99.90
34572;DHT22;20808;48.974;8.452;2023-03-15T00:51:39;1.90;99.90
34572;DHT22;20808;48.974;8.452;2023-03-15T00:51:55;1.90;99.90
34572;DHT22;20808;48.974;8.452;2023-03-15T00:52:11;1.90;99.90
34572;DHT22;20808;48.974;8.452;2023-03-15T00:52:33;1.90;99.90
34572;DHT22;20808;48.974;8.452;2023-03-15T00:52:50;1.80;99.90
34572;DHT22;20808;48.974;8.452;2023-03-15T00:53:08;1.80;99.90
34572;DHT22;20808;48.974;8.452;2023-03-15T00:53:26;1.80;99.90
34572;DHT22;20808;48.974;8.452;2023-03-15T00:53:43;1.80;99.90
34572;DHT22;20808;48.974;8.452;2023-03-15T00:53:59;1.80;99.90
34572;DHT22;20808;48.974;8.452;2023-03-15T00:54:15;1.80;99.90
34572;DHT22;20808;48.974;8.452;2023-03-15T00:54:31;1.80;99.90
34572;DHT22;20808;48.974;8.452;2023-03-15T00:54:51;1.80;99.90
34572;DHT22;20808;48.974;8.452;2023-03-15T00:55:09;1.80;99.90
34572;DHT22;20808;48.974;8.452;2023-03-15T00:55:27;1.80;99.90
34572;DHT22;20808;48.974;8.452;2023-03-15T00:55:43;1.80;99.90
34572;DHT22;20808;48.974;8.452;2023-03-15T00:56:03;1.80;99.90
34572;DHT22;20808;48.974;8.452;2023-03-15T00:56:20;1.80;99.90
34572;DHT22;20808;48.974;8.452;2023-03-15T00:56:38;1.80;99.90
34572;DHT22;20808;48.974;8.452;2023-03-15T00:56:53;1.70;99.90
34572;DHT22;20808;48.974;8.452;2023-03-15T00:57:09;1.70;99.90
34572;DHT22;20808;48.974;8.452;2023-03-15T00:57:25;1.70;99.90
34572;DHT22;20808;48.974;8.452;2023-03-15T00:57:42;1.70;99.90
34572;DHT22;20808;48.974;8.452;2023-03-15T00:57:58;1.70;99.90
34572;DHT22;20808;48.974;8.452;2023-03-15T00:58:15;1.70;99.90
34572;DHT22;20808;48.974;8.452;2023-03-15T00:58:31;1.70;99.90
34572;DHT22;20808;48.974;8.452;2023-03-15T00:58:46;1.70;99.90
34572;DHT22;20808;48.974;8.452;2023-03-15T00:59:02;1.70;99.90
34572;DHT22;20808;48.974;8.452;2023-03-15T00:59:18;1.60;99.90
34572;DHT22;20808;48.974;8.452;2023-03-15T00:59:34;1.60;99.90
34572;DHT22;20808;48.974;8.452;2023-03-15T00:59:50;1.60;99.90
34572;DHT22;20808;48.974;8.452;2023-03-15T01:00:09;1.60;99.90
34572;DHT22;20808;48.974;8.452;2023-03-15T01:00:26;1.60;99.90
34572;DHT22;20808;48.974;8.452;2023-03-15T01:00:42;1.60;99.90
34572;DHT22;20808;48.974;8.452;2023-03-15T01:00:57;1.60;99.90
34572;DHT22;20808;48.974;8.452;2023-03-15T01:01:15;1.60;99.90
34572;DHT22;20808;48.974;8.452;2023-03-15T01:01:32;1.60;99.90
34572;DHT22;20808;48.974;8.452;2023-03-15T01:01:48;1.60;99.90
34572;DHT22;20808;48.974;8.452;2023-03-15T01:02:05;1.60;99.90
34572;DHT22;20808;48.974;8.452;2023-03-15T01:02:21;1.60;99.90
34572;DHT22;20808;48.974;8.452;2023-03-15T01:02:36;1.60;99.90
34572;DHT22;20808;48.974;8.452;2023-03-15T01:02:53;1.60;99.90
34572;DHT22;20808;48.974;8.452;2023-03-15T01:03:10;1.60;99.90
34572;DHT22;20808;48.974;8.452;2023-03-15T01:03:26;1.60;99.90
34572;DHT22;20808;48.974;8.452;2023-03-15T01:03:42;1.60;99.90
34572;DHT22;20808;48.974;8.452;2023-03-15T01:03:58;1.60;99.90
34572;DHT22;20808;48.974;8.452;2023-03-15T01:04:14;1.60;99.90
34572;DHT22;20808;48.974;8.452;2023-03-15T01:04:30;1.60;99.90
34572;DHT22;20808;48.974;8.452;2023-03-15T01:04:47;1.60;99.90
34572;DHT22;20808;48.974;8.452;2023-03-15T01:05:03;1.70;99.90
34572;DHT22;20808;48.974;8.452;2023-03-15T01:05:20;1.70;99.90
34572;DHT22;20808;48.974;8.452;2023-03-15T01:05:35;1.70;99.90
34572;DHT22;20808;48.974;8.452;2023-03-15T01:05:51;1.70;99.90
34572;DHT22;20808;48.974;8.452;2023-03-15T01:06:11;1.70;99.90
34572;DHT22;20808;48.974;8.452;2023-03-15T01:06:29;1.60;99.90
34572;DHT22;20808;48.974;8.452;2023-03-15T01:06:45;1.60;99.90
34572;DHT22;20808;48.974;8.452;2023-03-15T01:07:01;1.60;99.90
34572;DHT22;20808;48.974;8.452;2023-03-15T01:07:16;1.60;99.90
34572;DHT22;20808;48.974;8.452;2023-03-15T01:07:33;1.70;99.90
34572;DHT22;20808;48.974;8.452;2023-03-15T01:07:50;1.70;99.90
34572;DHT22;20808;48.974;8.452;2023-03-15T01:08:08;1.70;99.90
34572;DHT22;20808;48.974;8.452;2023-03-15T01:08:24;1.70;99.90
34572;DHT22;20808;48.974;8.452;2023-03-15T01:08:40;1.70;99.90
34572;DHT22;20808;48.974;8.452;2023-03-15T01:08:56;1.70;99.90
34572;DHT22;20808;48.974;8.452;2023-03-15T01:09:11;1.70;99.90
34572;DHT22;20808;48.974;8.452;2023-03-15T01:09:28;1.70;99.90
34572;DHT22;20808;48.974;8.452;2023-03-15T01:09:45;1.70;99.90
34572;DHT22;20808;48.974;8.452;2023-03-15T01:10:03;1.60;99.90
34572;DHT22;20808;48.974;8.452;2023-03-15T01:10:19;1.60;99.90
34572;DHT22;20808;48.974;8.452;2023-03-15T01:10:36;1.60;99.90
34572;DHT22;20808;48.974;8.452;2023-03-15T01:10:52;1.60;99.90
34572;DHT22;20808;48.974;8.452;2023-03-15T01:11:12;1.60;99.90
34572;DHT22;20808;48.974;8.452;2023-03-15T01:11:28;1.50;99.90
34572;DHT22;20808;48.974;8.452;2023-03-15T01:11:44;1.60;99.90
34572;DHT22;20808;48.974;8.452;2023-03-15T01:11:59;1.50;99.90
34572;DHT22;20808;48.974;8.452;2023-03-15T01:12:15;1.50;99.90
34572;DHT22;20808;48.974;8.452;2023-03-15T01:12:32;1.50;99.90
34572;DHT22;20808;48.974;8.452;2023-03-15T01:12:49;1.50;99.90
34572;DHT22;20808;48.974;8.452;2023-03-15T01:13:05;1.50;99.90
34572;DHT22;20808;48.974;8.452;2023-03-15T01:13:21;1.50;99.90
34572;DHT22;20808;48.974;8.452;2023-03-15T01:13:37;1.50;99.90
34572;DHT22;20808;48.974;8.452;2023-03-15T01:13:55;1.50;99.90
34572;DHT22;20808;48.974;8.452;2023-03-15T01:14:11;1.50;99.90
34572;DHT22;20808;48.974;8.452;2023-03-15T01:14:28;1.50;99.90
34572;DHT22;20808;48.974;8.452;2023-03-15T01:14:44;1.50;99.90
34572;DHT22;20808;48.974;8.452;2023-03-15T01:15:00;1.50;99.90
34572;DHT22;20808;48.974;8.452;2023-03-15T01:15:18;1.50;99.90
34572;DHT22;20808;48.974;8.452;2023-03-15T01:15:34;1.50;99.90
34572;DHT22;20808;48.974;8.452;2023-03-15T01:15:49;1.60;99.90
34572;DHT22;20808;48.974;8.452;2023-03-15T01:16:06;1.60;99.90
34572;DHT22;20808;48.974;8.452;2023-03-15T01:16:26;1.60;99.90
34572;DHT22;20808;48.974;8.452;2023-03-15T01:16:41;1.60;99.90
34572;DHT22;20808;48.974;8.452;2023-03-15T01:16:57;1.60;99.90
34572;DHT22;20808;48.974;8.452;2023-03-15T01:17:13;1.60;99.90
34572;DHT22;20808;48.974;8.452;2023-03-15T01:17:29;1.60;99.90
34572;DHT22;20808;48.974;8.452;2023-03-15T01:17:45;1.60;99.90
34572;DHT22;20808;48.974;8.452;2023-03-15T01:18:01;1.60;99.90
34572;DHT22;20808;48.974;8.452;2023-03-15T01:18:17;1.60;99.90
34572;DHT22;20808;48.974;8.452;2023-03-15T01:18:33;1.60;99.90
34572;DHT22;20808;48.974;8.452;2023-03-15T01:18:49;1.60;99.90
34572;DHT22;20808;48.974;8.452;2023-03-15T01:19:06;1.60;99.90
34572;DHT22;20808;48.974;8.452;2023-03-15T01:19:21;1.60;99.90
34572;DHT22;20808;48.974;8.452;2023-03-15T01:19:38;1.60;99.90
34572;DHT22;20808;48.974;8.452;2023-03-15T01:19:54;1.60;99.90
34572;DHT22;20808;48.974;8.452;2023-03-15T01:20:11;1.60;99.90
34572;DHT22;20808;48.974;8.452;2023-03-15T01:20:27;1.60;99.90
34572;DHT22;20808;48.974;8.452;2023-03-15T01:20:43;1.60;99.90
34572;DHT22;20808;48.974;8.452;2023-03-15T01:20:59;1.60;99.90
34572;DHT22;20808;48.974;8.452;2023-03-15T01:21:17;1.60;99.90
34572;DHT22;20808;48.974;8.452;2023-03-15T01:21:33;1.60;99.90
34572;DHT22;20808;48.974;8.452;2023-03-15T01:21:49;1.60;99.90
34572;DHT22;20808;48.974;8.452;2023-03-15T01:22:04;1.60;99.90
34572;DHT22;20808;48.974;8.452;2023-03-15T01:22:20;1.60;99.90
34572;DHT22;20808;48.974;8.452;2023-03-15T01:22:36;1.60;99.90
34572;DHT22;20808;48.974;8.452;2023-03-15T01:22:53;1.60;99.90
34572;DHT22;20808;48.974;8.452;2023-03-15T01:23:10;1.60;99.90
34572;DHT22;20808;48.974;8.452;2023-03-15T01:23:26;1.60;99.90
34572;DHT22;20808;48.974;8.452;2023-03-15T01:23:42;1.60;99.90
34572;DHT22;20808;48.974;8.452;2023-03-15T01:23:59;1.60;99.90
34572;DHT22;20808;48.974;8.452;2023-03-15T01:24:14;1.60;99.90
34572;DHT22;20808;48.974;8.452;2023-03-15T01:24:30;1.60;99.90
34572;DHT22;20808;48.974;8.452;2023-03-15T01:24:47;1.60;99.90
34572;DHT22;20808;48.974;8.452;2023-03-15T01:25:03;1.60;99.90
34572;DHT22;20808;48.974;8.452;2023-03-15T01:25:20;1.60;99.90
34572;DHT22;20808;48.974;8.452;2023-03-15T01:25:36;1.60;99.90
34572;DHT22;20808;48.974;8.452;2023-03-15T01:25:51;1.60;99.90
34572;DHT22;20808;48.974;8.452;2023-03-15T01:26:10;1.60;99.90
34572;DHT22;20808;48.974;8.452;2023-03-15T01:26:26;1.60;99.90
34572;DHT22;20808;48.974;8.452;2023-03-15T01:26:43;1.60;99.90
34572;DHT22;20808;48.974;8.452;2023-03-15T01:26:59;1.60;99.90
34572;DHT22;20808;48.974;8.452;2023-03-15T01:27:14;1.60;99.90
34572;DHT22;20808;48.974;8.452;2023-03-15T01:27:30;1.50;99.90
34572;DHT22;20808;48.974;8.452;2023-03-15T01:27:46;1.50;99.90
34572;DHT22;20808;48.974;8.452;2023-03-15T01:28:02;1.50;99.90
34572;DHT22;20808;48.974;8.452;2023-03-15T01:28:18;1.50;99.90
34572;DHT22;20808;48.974;8.452;2023-03-15T01:28:34;1.50;99.90
34572;DHT22;20808;48.974;8.452;2023-03-15T01:28:50;1.50;99.90
34572;DHT22;20808;48.974;8.452;2023-03-15T01:29:06;1.40;99.90
34572;DHT22;20808;48.974;8.452;2023-03-15T01:29:22;1.40;99.90
34572;DHT22;20808;48.974;8.452;2023-03-15T01:29:38;1.40;99.90
34572;DHT22;20808;48.974;8.452;2023-03-15T01:29:54;1.40;99.90
34572;DHT22;20808;48.974;8.452;2023-03-15T01:30:10;1.40;99.90
34572;DHT22;20808;48.974;8.452;2023-03-15T01:30:27;1.30;99.90
34572;DHT22;20808;48.974;8.452;2023-03-15T01:30:48;1.30;99.90
34572;DHT22;20808;48.974;8.452;2023-03-15T01:31:04;1.30;99.90
34572;DHT22;20808;48.974;8.452;2023-03-15T01:31:21;1.30;99.90
34572;DHT22;20808;48.974;8.452;2023-03-15T01:31:37;1.30;99.90
34572;DHT22;20808;48.974;8.452;2023-03-15T01:31:54;1.30;99.90
34572;DHT22;20808;48.974;8.452;2023-03-15T01:32:10;1.20;99.90
34572;DHT22;20808;48.974;8.452;2023-03-15T01:32:26;1.20;99.90
34572;DHT22;20808;48.974;8.452;2023-03-15T01:32:42;1.20;99.90
34572;DHT22;20808;48.974;8.452;2023-03-15T01:32:58;1.20;99.90
34572;DHT22;20808;48.974;8.452;2023-03-15T01:33:14;1.20;99.90
34572;DHT22;20808;48.974;8.452;2023-03-15T01:33:31;1.30;99.90
34572;DHT22;20808;48.974;8.452;2023-03-15T01:33:47;1.30;99.90
34572;DHT22;20808;48.974;8.452;2023-03-15T01:34:03;1.30;99.90
34572;DHT22;20808;48.974;8.452;2023-03-15T01:34:18;1.30;99.90
34572;DHT22;20808;48.974;8.452;2023-03-15T01:34:35;1.20;99.90
34572;DHT22;20808;48.974;8.452;2023-03-15T01:34:51;1.20;99.90
34572;DHT22;20808;48.974;8.452;2023-03-15T01:35:07;1.20;99.90
34572;DHT22;20808;48.974;8.452;2023-03-15T01:35:24;1.30;99.90
34572;DHT22;20808;48.974;8.452;2023-03-15T01:35:40;1.30;99.90
34572;DHT22;20808;48.974;8.452;2023-03-15T01:36:00;1.30;99.90
34572;DHT22;20808;48.974;8.452;2023-03-15T01:36:17;1.30;99.90
34572;DHT22;20808;48.974;8.452;2023-03-15T01:36:34;1.30;99.90
34572;DHT22;20808;48.974;8.452;2023-03-15T01:36:50;1.40;99.90
34572;DHT22;20808;48.974;8.452;2023-03-15T01:37:07;1.40;99.90
34572;DHT22;20808;48.974;8.452;2023-03-15T01:37:25;1.40;99.90
34572;DHT22;20808;48.974;8.452;2023-03-15T01:37:41;1.40;99.90
34572;DHT22;20808;48.974;8.452;2023-03-15T01:37:56;1.50;99.90
34572;DHT22;20808;48.974;8.452;2023-03-15T01:38:16;1.40;99.90
34572;DHT22;20808;48.974;8.452;2023-03-15T01:38:33;1.50;99.90
34572;DHT22;20808;48.974;8.452;2023-03-15T01:38:49;1.50;99.90
34572;DHT22;20808;48.974;8.452;2023-03-15T01:39:05;1.50;99.90
34572;DHT22;20808;48.974;8.452;2023-03-15T01:39:21;1.50;99.90
34572;DHT22;20808;48.974;8.452;2023-03-15T01:39:37;1.50;99.90
34572;DHT22;20808;48.974;8.452;2023-03-15T01:39:54;1.50;99.90
34572;DHT22;20808;48.974;8.452;2023-03-15T01:40:12;1.50;99.90
34572;DHT22;20808;48.974;8.452;2023-03-15T01:40:28;1.50;99.90
34572;DHT22;20808;48.974;8.452;2023-03-15T01:40:44;1.60;99.90
34572;DHT22;20808;48.974;8.452;2023-03-15T01:41:00;1.60;99.90
34572;DHT22;20808;48.974;8.452;2023-03-15T01:41:17;1.60;99.90
34572;DHT22;20808;48.974;8.452;2023-03-15T01:41:34;1.60;99.90
34572;DHT22;20808;48.974;8.452;2023-03-15T01:41:51;1.60;99.90
34572;DHT22;20808;48.974;8.452;2023-03-15T01:42:07;1.60;99.90
34572;DHT22;20808;48.974;8.452;2023-03-15T01:42:23;1.60;99.90
34572;DHT22;20808;48.974;8.452;2023-03-15T01:43:13;1.70;99.90
34572;DHT22;20808;48.974;8.452;2023-03-15T01:43:31;1.60;99.90
34572;DHT22;20808;48.974;8.452;2023-03-15T01:43:47;1.60;99.90
34572;DHT22;20808;48.974;8.452;2023-03-15T01:44:03;1.70;99.90
34572;DHT22;20808;48.974;8.452;2023-03-15T01:44:19;1.70;99.90
34572;DHT22;20808;48.974;8.452;2023-03-15T01:44:51;1.70;99.90
34572;DHT22;20808;48.974;8.452;2023-03-15T01:46:05;1.70;99.90
34572;DHT22;20808;48.974;8.452;2023-03-15T01:46:25;1.70;99.90
34572;DHT22;20808;48.974;8.452;2023-03-15T01:46:41;1.70;99.90
34572;DHT22;20808;48.974;8.452;2023-03-15T01:46:57;1.70;99.90
34572;DHT22;20808;48.974;8.452;2023-03-15T01:47:12;1.70;99.90
34572;DHT22;20808;48.974;8.452;2023-03-15T01:47:28;1.70;99.90
34572;DHT22;20808;48.974;8.452;2023-03-15T01:47:47;1.70;99.90
34572;DHT22;20808;48.974;8.452;2023-03-15T01:48:03;1.70;99.90
34572;DHT22;20808;48.974;8.452;2023-03-15T01:48:21;1.70;99.90